Time;durP1;ratioP1;P1;durP2;ratioP2;P2;SDS_P1;SDS_P2;PMS_P1;PMS_P2;Temp;Humidity;BMP_temperature;BMP_pressure;BME280_temperature;BME280_humidity;BME280_pressure;Samples;Min_cycle;Max_cycle;Signal;HPM_P1;HPM_P2
2021/08/20 08:00:05;;;;;;;2.00;1.50;;;;;;;;;;5083492;28;20165;-58
2021/08/20 08:02:31;;;;;;;1.33;1.23;;;;;;;;;;5079695;28;20542;-57
2021/08/20 08:04:58;;;;;;;1.40;1.30;;;;;;;;;;5098461;28;20028;-57
2021/08/20 08:07:25;;;;;;;1.13;1.02;;;;;;;;;;5095871;28;20036;-57
2021/08/20 08:09:51;;;;;;;1.42;1.30;;;;;;;;;;5081396;28;20211;-57
2021/08/20 08:12:17;;;;;;;1.40;0.90;;;;;;;;;;5073317;28;20032;-58
2021/08/20 08:14:44;;;;;;;1.38;1.20;;;;;;;;;;5064393;28;20055;-57
2021/08/20 08:17:10;;;;;;;1.20;1.10;;;;;;;;;;5062592;28;20033;-57
2021/08/20 08:19:36;;;;;;;1.13;1.02;;;;;;;;;;5078342;28;20464;-58
2021/08/20 08:22:02;;;;;;;1.20;1.10;;;;;;;;;;5083363;28;20028;-57
2021/08/20 08:24:29;;;;;;;1.27;1.05;;;;;;;;;;5069451;28;20570;-57
2021/08/20 08:26:55;;;;;;;1.13;0.93;;;;;;;;;;5062287;28;20028;-57
2021/08/20 08:29:22;;;;;;;1.10;1.00;;;;;;;;;;5062605;28;20032;-57
2021/08/20 08:31:48;;;;;;;1.25;1.15;;;;;;;;;;5068271;28;20032;-57
2021/08/20 08:34:13;;;;;;;1.95;1.10;;;;;;;;;;5074025;28;20098;-57
2021/08/20 08:36:41;;;;;;;1.50;1.05;;;;;;;;;;5069000;28;20028;-57
2021/08/20 08:39:08;;;;;;;1.60;0.90;;;;;;;;;;5082701;28;20117;-57
2021/08/20 08:41:35;;;;;;;1.10;1.00;;;;;;;;;;5083002;28;20490;-57
2021/08/20 08:44:01;;;;;;;1.52;1.00;;;;;;;;;;5079533;28;20427;-57
2021/08/20 08:46:30;;;;;;;1.08;0.98;;;;;;;;;;5072984;28;20107;-57
2021/08/20 08:48:57;;;;;;;0.90;0.88;;;;;;;;;;5082218;28;20047;-57
2021/08/20 08:51:24;;;;;;;1.05;0.95;;;;;;;;;;5088788;28;20032;-57
2021/08/20 08:53:50;;;;;;;1.23;1.05;;;;;;;;;;5095638;28;20036;-57
2021/08/20 08:56:20;;;;;;;1.10;1.00;;;;;;;;;;5081307;28;20593;-57
2021/08/20 08:58:46;;;;;;;0.90;0.70;;;;;;;;;;5082352;28;20043;-57
2021/08/20 09:01:31;;;;;;;0.85;0.82;;;;;;;;;;5081280;28;20063;-57
2021/08/20 09:04:12;;;;;;;1.17;0.90;;;;;;;;;;5063024;28;20060;-57
2021/08/20 09:06:45;;;;;;;1.42;0.80;;;;;;;;;;5081422;28;20047;-58
2021/08/20 09:09:13;;;;;;;0.88;0.88;;;;;;;;;;5080000;28;20646;-58
2021/08/20 09:11:40;;;;;;;0.65;0.60;;;;;;;;;;5066713;28;20028;-58
2021/08/20 09:14:07;;;;;;;1.05;0.90;;;;;;;;;;5066182;28;20025;-58
2021/08/20 09:16:42;;;;;;;0.93;0.82;;;;;;;;;;5067759;28;20110;-57
2021/08/20 09:19:08;;;;;;;1.05;0.70;;;;;;;;;;5067589;28;20035;-57
2021/08/20 09:21:35;;;;;;;0.60;0.60;;;;;;;;;;5065792;28;20398;-57
2021/08/20 09:24:01;;;;;;;1.58;1.08;;;;;;;;;;5066125;28;20029;-57
2021/08/20 09:26:27;;;;;;;0.93;0.82;;;;;;;;;;5064119;28;20036;-57
2021/08/20 09:28:57;;;;;;;0.80;0.80;;;;;;;;;;5055056;28;20046;-57
2021/08/20 09:31:23;;;;;;;0.70;0.70;;;;;;;;;;5051753;28;20036;-58
2021/08/20 09:33:50;;;;;;;0.88;0.88;;;;;;;;;;5063710;28;20387;-57
2021/08/20 09:36:21;;;;;;;0.73;0.73;;;;;;;;;;5068613;28;20482;-57
2021/08/20 09:38:56;;;;;;;0.70;0.70;;;;;;;;;;5065439;28;20020;-57
2021/08/20 09:41:34;;;;;;;0.63;0.63;;;;;;;;;;5066563;28;20040;-58
2021/08/20 09:44:03;;;;;;;0.90;0.80;;;;;;;;;;5070140;28;20517;-57
2021/08/20 09:46:42;;;;;;;0.65;0.63;;;;;;;;;;5068463;28;20016;-57
2021/08/20 09:49:09;;;;;;;0.70;0.70;;;;;;;;;;5067480;28;20040;-57
2021/08/20 09:51:39;;;;;;;0.70;0.70;;;;;;;;;;5068496;28;20025;-57
2021/08/20 09:54:07;;;;;;;0.63;0.60;;;;;;;;;;5067307;28;20132;-57
2021/08/20 09:56:34;;;;;;;0.75;0.75;;;;;;;;;;5063543;28;20023;-57
2021/08/20 09:59:03;;;;;;;0.50;0.50;;;;;;;;;;5067870;28;20039;-57
2021/08/20 10:01:30;;;;;;;0.70;0.70;;;;;;;;;;5061897;28;20021;-57
2021/08/20 10:03:57;;;;;;;1.17;0.80;;;;;;;;;;5064140;28;20043;-57
2021/08/20 10:06:24;;;;;;;0.70;0.70;;;;;;;;;;5073942;28;20025;-57
2021/08/20 10:08:51;;;;;;;0.70;0.70;;;;;;;;;;5067706;28;20036;-57
2021/08/20 10:11:19;;;;;;;0.68;0.68;;;;;;;;;;5067541;28;20067;-57
2021/08/20 10:13:45;;;;;;;2.30;0.70;;;;;;;;;;5067768;28;20035;-57
2021/08/20 10:16:12;;;;;;;0.52;0.52;;;;;;;;;;5067916;28;20028;-57
2021/08/20 10:18:41;;;;;;;0.57;0.50;;;;;;;;;;5063355;28;20035;-57
2021/08/20 10:21:08;;;;;;;0.68;0.68;;;;;;;;;;5047485;28;20128;-57
2021/08/20 10:23:35;;;;;;;0.50;0.50;;;;;;;;;;5059151;28;20028;-57
2021/08/20 10:26:02;;;;;;;0.50;0.50;;;;;;;;;;5067845;28;20070;-57
2021/08/20 10:28:28;;;;;;;0.60;0.60;;;;;;;;;;5066389;28;20344;-57
2021/08/20 10:30:55;;;;;;;1.15;0.85;;;;;;;;;;5052086;28;20033;-57
2021/08/20 10:33:34;;;;;;;0.63;0.63;;;;;;;;;;5066069;28;20028;-57
2021/08/20 10:36:01;;;;;;;0.60;0.60;;;;;;;;;;5067449;28;20031;-57
2021/08/20 10:38:30;;;;;;;0.80;0.77;;;;;;;;;;5065608;28;20032;-57
2021/08/20 10:41:14;;;;;;;0.70;0.70;;;;;;;;;;5066493;28;20052;-57
2021/08/20 10:43:59;;;;;;;0.85;0.82;;;;;;;;;;5066853;28;20077;-58
2021/08/20 10:46:32;;;;;;;1.35;0.90;;;;;;;;;;5066728;28;20047;-57
2021/08/20 10:51:51;;;;;;;0.80;0.80;;;;;;;;;;5064546;28;20037;-58
2021/08/20 10:54:39;;;;;;;0.80;0.80;;;;;;;;;;5067608;28;20570;-59
2021/08/20 10:57:06;;;;;;;0.85;0.85;;;;;;;;;;5040963;28;20040;-57
2021/08/20 10:59:46;;;;;;;0.90;0.90;;;;;;;;;;5052019;28;20024;-57
2021/08/20 11:02:21;;;;;;;0.80;0.80;;;;;;;;;;5061481;28;20446;-58
2021/08/20 11:04:59;;;;;;;0.80;0.80;;;;;;;;;;5067035;28;20056;-57
2021/08/20 11:07:37;;;;;;;0.60;0.60;;;;;;;;;;5062461;28;20396;-58
2021/08/20 11:10:09;;;;;;;0.93;0.82;;;;;;;;;;5067602;28;20051;-58
2021/08/20 11:12:38;;;;;;;0.80;0.80;;;;;;;;;;5065093;28;20390;-57
2021/08/20 11:15:23;;;;;;;0.77;0.77;;;;;;;;;;5066939;28;20035;-57
2021/08/20 11:17:56;;;;;;;0.70;0.70;;;;;;;;;;5060728;28;20021;-57
2021/08/20 11:20:25;;;;;;;0.80;0.77;;;;;;;;;;5046946;28;20029;-57
2021/08/20 11:23:06;;;;;;;0.70;0.70;;;;;;;;;;5066881;28;20024;-58
2021/08/20 11:25:36;;;;;;;0.93;0.80;;;;;;;;;;5064539;28;20051;-57
2021/08/20 11:28:03;;;;;;;0.80;0.80;;;;;;;;;;5060370;28;20044;-57
2021/08/20 11:30:30;;;;;;;0.93;0.70;;;;;;;;;;5066657;28;20462;-57
2021/08/20 11:33:32;;;;;;;0.60;0.60;;;;;;;;;;5064505;28;20430;-57
2021/08/20 11:36:02;;;;;;;0.80;0.70;;;;;;;;;;5043765;28;20484;-57
2021/08/20 11:38:31;;;;;;;0.90;0.88;;;;;;;;;;5060154;28;20613;-58
2021/08/20 11:41:03;;;;;;;0.80;0.80;;;;;;;;;;5062782;28;20111;-57
2021/08/20 11:43:30;;;;;;;0.80;0.80;;;;;;;;;;5046746;28;20087;-58
2021/08/20 11:46:00;;;;;;;1.08;0.90;;;;;;;;;;5046188;28;20082;-58
2021/08/20 11:48:27;;;;;;;0.60;0.60;;;;;;;;;;5046487;28;20036;-58
2021/08/20 11:50:54;;;;;;;0.80;0.68;;;;;;;;;;5045824;28;20041;-59
2021/08/20 11:53:23;;;;;;;0.80;0.80;;;;;;;;;;5045232;28;20040;-58
2021/08/20 11:55:50;;;;;;;0.57;0.57;;;;;;;;;;5044812;28;20025;-59
2021/08/20 11:58:28;;;;;;;0.65;0.65;;;;;;;;;;5044530;28;20037;-59
2021/08/20 12:00:55;;;;;;;0.90;0.90;;;;;;;;;;5044833;28;20029;-59
2021/08/20 12:03:21;;;;;;;1.00;0.90;;;;;;;;;;5044736;28;20013;-59
2021/08/20 12:05:47;;;;;;;1.30;1.05;;;;;;;;;;5044881;28;20087;-58
2021/08/20 12:08:17;;;;;;;0.80;0.70;;;;;;;;;;5045192;28;20061;-59
2021/08/20 12:10:45;;;;;;;0.93;0.90;;;;;;;;;;5044868;28;20083;-59
2021/08/20 12:13:13;;;;;;;1.13;0.80;;;;;;;;;;5044581;28;20064;-59
2021/08/20 12:15:39;;;;;;;1.00;0.90;;;;;;;;;;5044582;28;20028;-59
2021/08/20 12:18:20;;;;;;;1.50;0.82;;;;;;;;;;5045259;28;20025;-59
2021/08/20 12:20:46;;;;;;;0.65;0.65;;;;;;;;;;5044919;28;20029;-58
2021/08/20 12:23:12;;;;;;;0.57;0.57;;;;;;;;;;5044908;28;20035;-59
2021/08/20 12:25:41;;;;;;;0.98;0.70;;;;;;;;;;5044370;28;20029;-59
2021/08/20 12:28:12;;;;;;;0.60;0.60;;;;;;;;;;5044852;28;20044;-59
2021/08/20 12:30:39;;;;;;;0.60;0.60;;;;;;;;;;5044499;28;20033;-59
2021/08/20 12:33:06;;;;;;;0.68;0.60;;;;;;;;;;5044894;28;20163;-59
2021/08/20 12:35:32;;;;;;;0.68;0.63;;;;;;;;;;5044881;28;20036;-59
2021/08/20 12:38:09;;;;;;;0.57;0.57;;;;;;;;;;5044493;28;20035;-59
2021/08/20 12:40:38;;;;;;;0.60;0.60;;;;;;;;;;5044490;28;20036;-59
2021/08/20 12:43:04;;;;;;;0.60;0.60;;;;;;;;;;5045106;28;20032;-59
2021/08/20 12:45:31;;;;;;;0.47;0.47;;;;;;;;;;5046008;28;20029;-59
2021/08/20 12:48:04;;;;;;;0.80;0.80;;;;;;;;;;5048212;28;20021;-59
2021/08/20 12:50:31;;;;;;;0.65;0.65;;;;;;;;;;5048520;28;20032;-59
2021/08/20 12:53:01;;;;;;;1.00;0.90;;;;;;;;;;5048166;28;20017;-59
2021/08/20 12:55:30;;;;;;;0.70;0.70;;;;;;;;;;5047410;28;20388;-59
2021/08/20 12:57:57;;;;;;;0.75;0.70;;;;;;;;;;5047779;28;20060;-59
2021/08/20 13:00:25;;;;;;;0.80;0.80;;;;;;;;;;5059576;28;20494;-59
2021/08/20 13:02:51;;;;;;;1.35;0.95;;;;;;;;;;5073180;28;20135;-59
2021/08/20 13:05:18;;;;;;;0.65;0.65;;;;;;;;;;5065440;28;20021;-59
2021/08/20 13:07:44;;;;;;;1.00;0.90;;;;;;;;;;5065342;28;20020;-59
2021/08/20 13:10:10;;;;;;;0.75;0.75;;;;;;;;;;5067798;28;20040;-59
2021/08/20 13:12:36;;;;;;;0.60;0.60;;;;;;;;;;5067798;28;20032;-59
2021/08/20 13:15:02;;;;;;;1.13;0.73;;;;;;;;;;5068127;28;20043;-59
2021/08/20 13:17:28;;;;;;;0.75;0.75;;;;;;;;;;5065777;28;20393;-59
2021/08/20 13:19:56;;;;;;;0.93;0.93;;;;;;;;;;5067584;28;20047;-59
2021/08/20 13:22:22;;;;;;;0.68;0.68;;;;;;;;;;5067274;28;20052;-59
2021/08/20 13:24:49;;;;;;;1.15;1.00;;;;;;;;;;5067145;28;20472;-59
2021/08/20 13:27:16;;;;;;;1.17;0.85;;;;;;;;;;5067394;28;20093;-59
2021/08/20 13:29:42;;;;;;;0.73;0.73;;;;;;;;;;5064463;28;20025;-59
2021/08/20 13:32:08;;;;;;;0.75;0.75;;;;;;;;;;5066941;28;20776;-59
2021/08/20 13:34:34;;;;;;;0.80;0.80;;;;;;;;;;5069070;28;20029;-59
2021/08/20 13:37:00;;;;;;;1.10;0.80;;;;;;;;;;5069182;28;20047;-59
2021/08/20 13:39:26;;;;;;;0.95;0.73;;;;;;;;;;5064142;28;20538;-59
2021/08/20 13:41:52;;;;;;;0.85;0.80;;;;;;;;;;5068251;28;20473;-58
2021/08/20 13:44:18;;;;;;;0.57;0.57;;;;;;;;;;5066849;28;20435;-58
2021/08/20 13:46:44;;;;;;;0.70;0.70;;;;;;;;;;5067273;28;20021;-58
2021/08/20 13:49:14;;;;;;;0.80;0.80;;;;;;;;;;5066841;28;20605;-59
2021/08/20 13:51:40;;;;;;;0.80;0.80;;;;;;;;;;5066388;28;20024;-59
2021/08/20 13:54:07;;;;;;;0.95;0.95;;;;;;;;;;5067084;28;20029;-59
2021/08/20 13:56:33;;;;;;;0.70;0.70;;;;;;;;;;5067288;28;20032;-59
2021/08/20 13:58:59;;;;;;;0.70;0.70;;;;;;;;;;5066617;28;20032;-59
2021/08/20 14:01:25;;;;;;;0.70;0.70;;;;;;;;;;5066445;28;20024;-59
2021/08/20 14:03:51;;;;;;;0.88;0.88;;;;;;;;;;5066838;28;20163;-59
2021/08/20 14:06:17;;;;;;;0.70;0.70;;;;;;;;;;5064766;28;20108;-59
2021/08/20 14:08:43;;;;;;;1.00;0.80;;;;;;;;;;5066311;28;20036;-59
2021/08/20 14:11:09;;;;;;;0.77;0.77;;;;;;;;;;5066782;28;20127;-59
2021/08/20 14:13:35;;;;;;;0.80;0.80;;;;;;;;;;5066237;28;20593;-59
2021/08/20 14:16:01;;;;;;;0.70;0.70;;;;;;;;;;5066164;28;20111;-58
2021/08/20 14:18:28;;;;;;;0.70;0.70;;;;;;;;;;5065478;28;20824;-59
2021/08/20 14:20:55;;;;;;;1.35;0.60;;;;;;;;;;5065509;28;20025;-59
2021/08/20 14:23:22;;;;;;;1.80;1.00;;;;;;;;;;5065878;28;20033;-59
2021/08/20 14:25:49;;;;;;;1.00;0.90;;;;;;;;;;5066171;28;20048;-59
2021/08/20 14:28:15;;;;;;;0.90;0.90;;;;;;;;;;5061663;28;20449;-59
2021/08/20 14:30:41;;;;;;;0.77;0.77;;;;;;;;;;5064818;28;20028;-59
2021/08/20 14:33:08;;;;;;;1.17;1.00;;;;;;;;;;5066029;28;20035;-59
2021/08/20 14:35:34;;;;;;;1.10;1.00;;;;;;;;;;5060782;28;20025;-59
2021/08/20 14:38:03;;;;;;;0.82;0.82;;;;;;;;;;5046649;28;20063;-59
2021/08/20 14:40:29;;;;;;;0.70;0.70;;;;;;;;;;5045827;28;20372;-60
2021/08/20 14:42:55;;;;;;;0.70;0.70;;;;;;;;;;5046095;28;20091;-59
2021/08/20 14:45:21;;;;;;;0.80;0.80;;;;;;;;;;5046264;28;20025;-60
2021/08/20 14:47:48;;;;;;;1.02;0.93;;;;;;;;;;5065607;28;20081;-59
2021/08/20 14:50:14;;;;;;;1.00;0.88;;;;;;;;;;5066694;28;20028;-60
2021/08/20 14:52:40;;;;;;;0.90;0.90;;;;;;;;;;5055737;28;20029;-60
2021/08/20 14:55:07;;;;;;;1.10;1.10;;;;;;;;;;5059215;28;20437;-60
2021/08/20 14:57:34;;;;;;;0.82;0.82;;;;;;;;;;5066471;28;20056;-61
2021/08/20 15:00:00;;;;;;;1.10;1.00;;;;;;;;;;5066345;28;20024;-60
2021/08/20 15:02:27;;;;;;;0.70;0.70;;;;;;;;;;5061421;28;20585;-60
2021/08/20 15:04:54;;;;;;;1.35;0.80;;;;;;;;;;5064983;28;20833;-60
2021/08/20 15:07:21;;;;;;;0.60;0.60;;;;;;;;;;5065896;28;20074;-60
2021/08/20 15:09:47;;;;;;;1.38;1.10;;;;;;;;;;5059231;28;20033;-60
2021/08/20 15:12:13;;;;;;;0.95;0.73;;;;;;;;;;5059583;28;20394;-59
2021/08/20 15:14:40;;;;;;;1.02;0.90;;;;;;;;;;5065728;28;20394;-60
2021/08/20 15:17:06;;;;;;;1.15;0.85;;;;;;;;;;5066189;28;20036;-60
2021/08/20 15:19:38;;;;;;;1.10;1.00;;;;;;;;;;5053961;28;20060;-59
2021/08/20 15:22:05;;;;;;;1.10;1.00;;;;;;;;;;5051964;28;20468;-60
2021/08/20 15:24:31;;;;;;;1.10;1.05;;;;;;;;;;5065222;28;20020;-60
2021/08/20 15:26:57;;;;;;;0.82;0.82;;;;;;;;;;5062643;28;20074;-60
2021/08/20 15:29:23;;;;;;;0.98;0.93;;;;;;;;;;5065589;28;20059;-60
2021/08/20 15:31:49;;;;;;;1.00;0.90;;;;;;;;;;5065500;28;20428;-60
2021/08/20 15:34:16;;;;;;;1.00;1.00;;;;;;;;;;5063770;28;20028;-60
2021/08/20 15:36:42;;;;;;;0.82;0.82;;;;;;;;;;5065153;28;20530;-60
2021/08/20 15:39:08;;;;;;;1.05;0.98;;;;;;;;;;5065510;28;20513;-60
2021/08/20 15:41:35;;;;;;;1.20;1.10;;;;;;;;;;5065944;28;20029;-60
2021/08/20 15:44:05;;;;;;;0.93;0.90;;;;;;;;;;5063718;28;20037;-60
2021/08/20 15:46:31;;;;;;;1.00;0.90;;;;;;;;;;5065569;28;20111;-60
2021/08/20 15:48:58;;;;;;;0.90;0.90;;;;;;;;;;5065798;28;20025;-60
2021/08/20 15:51:25;;;;;;;0.90;0.90;;;;;;;;;;5065471;28;20024;-60
2021/08/20 15:53:51;;;;;;;1.20;1.10;;;;;;;;;;5063191;28;20437;-60
2021/08/20 15:56:18;;;;;;;1.23;1.13;;;;;;;;;;5063664;28;20028;-60
2021/08/20 15:58:45;;;;;;;1.20;1.10;;;;;;;;;;5065081;28;20032;-60
2021/08/20 16:01:11;;;;;;;1.35;1.25;;;;;;;;;;5065232;28;20035;-61
2021/08/20 16:03:38;;;;;;;0.80;0.80;;;;;;;;;;5060931;28;20025;-60
2021/08/20 16:06:04;;;;;;;1.17;1.08;;;;;;;;;;5043647;28;20021;-60
2021/08/20 16:08:31;;;;;;;1.30;1.20;;;;;;;;;;5045309;28;20268;-60
2021/08/20 16:10:58;;;;;;;1.13;1.02;;;;;;;;;;5049871;28;20108;-61
2021/08/20 16:13:25;;;;;;;1.10;1.00;;;;;;;;;;5063182;28;20143;-60
2021/08/20 16:15:52;;;;;;;1.02;1.02;;;;;;;;;;5050670;28;20025;-60
2021/08/20 16:18:18;;;;;;;1.10;1.00;;;;;;;;;;5052610;28;20036;-60
2021/08/20 16:20:45;;;;;;;0.98;0.93;;;;;;;;;;5060400;28;20027;-60
2021/08/20 16:23:12;;;;;;;1.20;1.10;;;;;;;;;;5051734;28;20021;-60
2021/08/20 16:25:38;;;;;;;1.40;1.30;;;;;;;;;;5047513;28;20025;-60
2021/08/20 16:28:04;;;;;;;1.10;1.00;;;;;;;;;;5052162;28;20541;-60
2021/08/20 16:30:30;;;;;;;1.40;1.20;;;;;;;;;;5067166;28;20031;-60
2021/08/20 16:32:56;;;;;;;1.30;1.20;;;;;;;;;;5082037;28;20036;-60
2021/08/20 16:35:23;;;;;;;1.10;1.00;;;;;;;;;;5057314;28;20050;-60
2021/08/20 16:37:49;;;;;;;1.27;1.17;;;;;;;;;;5068820;28;20104;-60
2021/08/20 16:40:15;;;;;;;1.15;1.05;;;;;;;;;;5068736;28;20050;-60
2021/08/20 16:42:41;;;;;;;0.90;0.90;;;;;;;;;;5067180;28;20024;-60
2021/08/20 16:45:07;;;;;;;0.98;0.93;;;;;;;;;;5066019;28;20078;-60
2021/08/20 16:47:33;;;;;;;1.40;1.30;;;;;;;;;;5066417;28;20032;-60
2021/08/20 16:50:00;;;;;;;1.20;1.10;;;;;;;;;;5067226;28;20037;-59
2021/08/20 16:52:26;;;;;;;1.20;1.10;;;;;;;;;;5045265;28;20161;-59
2021/08/20 16:54:52;;;;;;;1.30;1.20;;;;;;;;;;5052144;28;20395;-60
2021/08/20 16:57:21;;;;;;;1.10;1.00;;;;;;;;;;5067489;28;20450;-60
2021/08/20 16:59:47;;;;;;;1.05;1.00;;;;;;;;;;5065617;28;20581;-60
2021/08/20 17:02:14;;;;;;;1.00;1.00;;;;;;;;;;5065482;28;20024;-61
2021/08/20 17:04:40;;;;;;;0.93;0.93;;;;;;;;;;5066453;28;20494;-60
2021/08/20 17:07:06;;;;;;;1.20;1.10;;;;;;;;;;5066502;28;20028;-60
2021/08/20 17:09:33;;;;;;;1.13;1.00;;;;;;;;;;5067159;28;20033;-60
2021/08/20 17:11:59;;;;;;;0.80;0.80;;;;;;;;;;5066462;28;20029;-59
2021/08/20 17:14:26;;;;;;;1.20;1.10;;;;;;;;;;5064939;28;20032;-60
2021/08/20 17:16:52;;;;;;;1.00;1.00;;;;;;;;;;5065938;28;20098;-59
2021/08/20 17:19:18;;;;;;;1.02;0.93;;;;;;;;;;5073333;28;20471;-59
2021/08/20 17:21:45;;;;;;;1.00;0.82;;;;;;;;;;5063681;28;20016;-60
2021/08/20 17:24:11;;;;;;;1.35;1.25;;;;;;;;;;5066640;28;20085;-59
2021/08/20 17:26:37;;;;;;;2.10;1.63;;;;;;;;;;5051750;28;20459;-60
2021/08/20 17:29:03;;;;;;;1.48;1.38;;;;;;;;;;5065408;28;20434;-59
2021/08/20 17:31:29;;;;;;;1.20;1.10;;;;;;;;;;5066134;28;20032;-59
2021/08/20 17:33:56;;;;;;;1.20;1.10;;;;;;;;;;5066714;28;20060;-60
2021/08/20 17:36:23;;;;;;;1.20;1.10;;;;;;;;;;5065735;28;20028;-59
2021/08/20 17:38:50;;;;;;;1.10;1.00;;;;;;;;;;5066414;28;20028;-59
2021/08/20 17:41:16;;;;;;;1.20;1.10;;;;;;;;;;5063266;28;20123;-59
2021/08/20 17:43:42;;;;;;;1.10;1.10;;;;;;;;;;5066588;28;20396;-59
2021/08/20 17:46:08;;;;;;;1.15;1.05;;;;;;;;;;5065488;28;20072;-59
2021/08/20 17:48:35;;;;;;;1.27;1.17;;;;;;;;;;5066605;28;20050;-58
2021/08/20 17:51:04;;;;;;;1.95;1.08;;;;;;;;;;5066929;28;20081;-59
2021/08/20 17:53:30;;;;;;;1.20;1.10;;;;;;;;;;5065881;28;20035;-58
2021/08/20 17:55:56;;;;;;;1.00;0.90;;;;;;;;;;5057269;28;20047;-58
2021/08/20 17:58:22;;;;;;;1.20;1.10;;;;;;;;;;5064566;28;20027;-58
2021/08/20 18:00:48;;;;;;;1.40;1.30;;;;;;;;;;5066066;28;20024;-58
2021/08/20 18:03:14;;;;;;;0.90;0.90;;;;;;;;;;5064438;28;20029;-59
2021/08/20 18:05:44;;;;;;;1.10;1.00;;;;;;;;;;5062747;28;20032;-58
2021/08/20 18:08:10;;;;;;;1.20;1.00;;;;;;;;;;5065141;28;20028;-58
2021/08/20 18:10:37;;;;;;;1.20;1.10;;;;;;;;;;5059136;28;20451;-59
2021/08/20 18:13:04;;;;;;;1.00;1.00;;;;;;;;;;5065467;28;20098;-59
2021/08/20 18:15:30;;;;;;;1.05;0.90;;;;;;;;;;5064161;28;20021;-59
2021/08/20 18:17:57;;;;;;;0.93;0.90;;;;;;;;;;5065057;28;20039;-58
2021/08/20 18:20:23;;;;;;;1.55;1.20;;;;;;;;;;5058509;28;20043;-58
2021/08/20 18:22:49;;;;;;;1.30;1.20;;;;;;;;;;5067564;28;20024;-58
2021/08/20 18:25:15;;;;;;;1.17;1.08;;;;;;;;;;5067190;28;20502;-58
2021/08/20 18:27:41;;;;;;;1.48;0.80;;;;;;;;;;5067378;28;20033;-58
2021/08/20 18:30:08;;;;;;;1.20;1.10;;;;;;;;;;5064833;28;20063;-58
2021/08/20 18:32:34;;;;;;;1.40;1.30;;;;;;;;;;5046745;28;20025;-58
2021/08/20 18:35:00;;;;;;;0.90;0.90;;;;;;;;;;5052171;28;20107;-57
2021/08/20 18:37:27;;;;;;;1.30;1.05;;;;;;;;;;5063886;28;20056;-58
2021/08/20 18:39:53;;;;;;;0.93;0.93;;;;;;;;;;5064929;28;20489;-58
2021/08/20 18:42:19;;;;;;;1.17;1.08;;;;;;;;;;5052628;28;20071;-58
2021/08/20 18:44:45;;;;;;;1.10;1.00;;;;;;;;;;5063871;28;20040;-58
2021/08/20 18:47:11;;;;;;;1.23;1.00;;;;;;;;;;5065151;28;20032;-58
2021/08/20 18:49:37;;;;;;;1.15;1.05;;;;;;;;;;5063631;28;20108;-58
2021/08/20 18:52:05;;;;;;;1.05;0.98;;;;;;;;;;5063885;28;20104;-58
2021/08/20 18:54:35;;;;;;;1.13;1.02;;;;;;;;;;5064158;28;20028;-58
2021/08/20 18:57:01;;;;;;;1.15;1.05;;;;;;;;;;5064341;28;20024;-58
2021/08/20 18:59:28;;;;;;;1.38;1.27;;;;;;;;;;5062074;28;20120;-58
2021/08/20 19:01:54;;;;;;;1.13;1.02;;;;;;;;;;5064006;28;20028;-58
2021/08/20 19:04:20;;;;;;;1.58;1.30;;;;;;;;;;5065027;28;20143;-58
2021/08/20 19:06:46;;;;;;;1.25;1.15;;;;;;;;;;5062926;28;20448;-58
2021/08/20 19:09:12;;;;;;;1.27;1.17;;;;;;;;;;5062493;28;20028;-58
2021/08/20 19:11:40;;;;;;;1.58;1.20;;;;;;;;;;5063881;28;20028;-59
2021/08/20 19:14:07;;;;;;;1.48;1.08;;;;;;;;;;5064262;28;20032;-58
2021/08/20 19:16:33;;;;;;;1.30;1.20;;;;;;;;;;5064302;28;20047;-58
2021/08/20 19:18:59;;;;;;;1.20;1.10;;;;;;;;;;5064399;28;20037;-58
2021/08/20 19:21:26;;;;;;;1.77;1.20;;;;;;;;;;5061938;28;20037;-59
2021/08/20 19:23:53;;;;;;;1.08;0.88;;;;;;;;;;5063957;28;20037;-58
2021/08/20 19:26:19;;;;;;;2.85;1.17;;;;;;;;;;5062630;28;20033;-59
2021/08/20 19:28:45;;;;;;;1.52;1.15;;;;;;;;;;5064450;28;20037;-59
2021/08/20 19:31:11;;;;;;;1.15;1.05;;;;;;;;;;5056514;28;20063;-59
2021/08/20 19:33:40;;;;;;;1.20;1.10;;;;;;;;;;5051938;28;20024;-59
2021/08/20 19:36:06;;;;;;;1.77;1.10;;;;;;;;;;5069327;28;20035;-59
2021/08/20 19:38:33;;;;;;;1.30;1.20;;;;;;;;;;5081262;28;20572;-59
2021/08/20 19:41:01;;;;;;;2.15;1.70;;;;;;;;;;5057565;28;20071;-59
2021/08/20 19:43:27;;;;;;;1.70;1.50;;;;;;;;;;5061238;28;20037;-59
2021/08/20 19:45:54;;;;;;;2.42;2.20;;;;;;;;;;5062988;28;20032;-59
2021/08/20 19:48:20;;;;;;;2.10;1.70;;;;;;;;;;5063833;28;20036;-59
2021/08/20 19:50:47;;;;;;;2.45;1.63;;;;;;;;;;5062336;28;20025;-60
2021/08/20 19:53:13;;;;;;;1.92;1.73;;;;;;;;;;5063285;28;20033;-57
2021/08/20 19:55:41;;;;;;;1.95;1.60;;;;;;;;;;5062564;28;20013;-58
2021/08/20 19:58:08;;;;;;;1.80;1.60;;;;;;;;;;5063565;28;20068;-58
2021/08/20 20:00:34;;;;;;;1.60;1.50;;;;;;;;;;5059280;28;20070;-58
2021/08/20 20:03:01;;;;;;;1.58;1.48;;;;;;;;;;5058786;28;20081;-57
2021/08/20 20:05:28;;;;;;;1.33;1.20;;;;;;;;;;5063022;28;20029;-58
2021/08/20 20:07:54;;;;;;;1.50;1.27;;;;;;;;;;5064048;28;20125;-61
2021/08/20 20:10:21;;;;;;;1.67;1.45;;;;;;;;;;5062580;28;20522;-59
2021/08/20 20:12:48;;;;;;;1.85;1.52;;;;;;;;;;5063139;28;20024;-59
2021/08/20 20:15:15;;;;;;;2.28;1.88;;;;;;;;;;5062345;28;20025;-59
2021/08/20 20:17:41;;;;;;;2.88;2.05;;;;;;;;;;5059268;28;20077;-59
2021/08/20 20:20:09;;;;;;;2.65;2.13;;;;;;;;;;5062598;28;20029;-59
2021/08/20 20:22:37;;;;;;;3.50;2.28;;;;;;;;;;5063801;28;20032;-59
2021/08/20 20:25:04;;;;;;;2.40;1.90;;;;;;;;;;5063321;28;20071;-59
2021/08/20 20:27:30;;;;;;;1.92;1.73;;;;;;;;;;5063785;28;20113;-59
2021/08/20 20:29:56;;;;;;;2.17;1.77;;;;;;;;;;5061814;28;20029;-59
2021/08/20 20:32:23;;;;;;;1.75;1.60;;;;;;;;;;5061365;28;20036;-59
2021/08/20 20:34:49;;;;;;;1.90;1.50;;;;;;;;;;5062910;28;20534;-59
2021/08/20 20:37:15;;;;;;;1.63;1.48;;;;;;;;;;5062669;28;20039;-59
2021/08/20 20:39:41;;;;;;;2.08;1.70;;;;;;;;;;5056565;28;20041;-59
2021/08/20 20:42:08;;;;;;;1.35;1.25;;;;;;;;;;5053271;28;20037;-59
2021/08/20 20:44:34;;;;;;;1.63;1.40;;;;;;;;;;5062735;28;20535;-60
2021/08/20 20:47:00;;;;;;;1.92;1.40;;;;;;;;;;5064226;28;20449;-59
2021/08/20 20:49:26;;;;;;;1.30;1.20;;;;;;;;;;5062365;28;20032;-59
2021/08/20 20:51:52;;;;;;;1.55;1.45;;;;;;;;;;5061506;28;20033;-58
2021/08/20 20:54:18;;;;;;;1.40;1.30;;;;;;;;;;5062073;28;20025;-59
2021/08/20 20:56:44;;;;;;;1.75;1.38;;;;;;;;;;5063563;28;20035;-59
2021/08/20 20:59:10;;;;;;;1.73;1.55;;;;;;;;;;5062760;28;20024;-59
2021/08/20 21:01:36;;;;;;;1.50;1.40;;;;;;;;;;5062938;28;20040;-59
2021/08/20 21:04:03;;;;;;;1.50;1.40;;;;;;;;;;5062522;28;20039;-59
2021/08/20 21:06:29;;;;;;;1.50;1.40;;;;;;;;;;5064607;28;20036;-59
2021/08/20 21:08:55;;;;;;;1.23;1.13;;;;;;;;;;5066992;28;20111;-59
2021/08/20 21:11:23;;;;;;;1.85;1.52;;;;;;;;;;5064566;28;20438;-58
2021/08/20 21:13:49;;;;;;;2.30;1.48;;;;;;;;;;5066317;28;20490;-59
2021/08/20 21:16:15;;;;;;;1.75;1.40;;;;;;;;;;5067076;28;20026;-59
2021/08/20 21:18:42;;;;;;;1.38;1.27;;;;;;;;;;5065267;28;20028;-59
2021/08/20 21:21:09;;;;;;;1.85;1.50;;;;;;;;;;5066120;28;20029;-59
2021/08/20 21:23:35;;;;;;;1.70;1.33;;;;;;;;;;5067000;28;20038;-60
2021/08/20 21:26:01;;;;;;;1.33;1.23;;;;;;;;;;5067519;28;20025;-62
2021/08/20 21:28:27;;;;;;;1.50;1.27;;;;;;;;;;5065226;28;20538;-62
2021/08/20 21:30:53;;;;;;;1.40;1.20;;;;;;;;;;5062781;28;20040;-62
2021/08/20 21:33:20;;;;;;;2.08;1.63;;;;;;;;;;5050966;28;20029;-62
2021/08/20 21:35:47;;;;;;;2.03;1.40;;;;;;;;;;5046866;28;20116;-63
2021/08/20 21:38:18;;;;;;;1.88;1.30;;;;;;;;;;5045638;28;20503;-62
2021/08/20 21:40:44;;;;;;;1.70;1.60;;;;;;;;;;5061273;28;20115;-62
2021/08/20 21:43:10;;;;;;;1.90;1.75;;;;;;;;;;5053404;28;20071;-62
2021/08/20 21:45:37;;;;;;;2.25;1.75;;;;;;;;;;5044212;28;20087;-62
2021/08/20 21:48:04;;;;;;;1.60;1.50;;;;;;;;;;5047535;28;20427;-62
2021/08/20 21:50:31;;;;;;;1.67;1.50;;;;;;;;;;5046615;28;20033;-63
2021/08/20 21:52:57;;;;;;;1.65;1.55;;;;;;;;;;5057410;28;20429;-62
2021/08/20 21:55:23;;;;;;;2.35;1.88;;;;;;;;;;5065012;28;20028;-63
2021/08/20 21:57:49;;;;;;;1.40;1.30;;;;;;;;;;5065240;28;20028;-62
2021/08/20 22:00:16;;;;;;;1.60;1.50;;;;;;;;;;5064057;28;20149;-62
2021/08/20 22:02:46;;;;;;;1.65;1.40;;;;;;;;;;5065322;28;20029;-62
2021/08/20 22:05:17;;;;;;;2.00;1.48;;;;;;;;;;5045994;28;20067;-62
2021/08/20 22:07:50;;;;;;;1.45;1.30;;;;;;;;;;5045142;28;20562;-62
2021/08/20 22:10:16;;;;;;;1.90;1.60;;;;;;;;;;5045945;28;20057;-62
2021/08/20 22:12:43;;;;;;;1.70;1.58;;;;;;;;;;5052595;28;20487;-63
2021/08/20 22:15:09;;;;;;;1.67;1.52;;;;;;;;;;5066088;28;20028;-62
2021/08/20 22:17:35;;;;;;;1.83;1.40;;;;;;;;;;5066036;28;20021;-63
2021/08/20 22:20:01;;;;;;;1.33;1.23;;;;;;;;;;5065401;28;20040;-62
2021/08/20 22:22:27;;;;;;;2.70;1.70;;;;;;;;;;5064966;28;20363;-62
2021/08/20 22:24:53;;;;;;;2.20;1.60;;;;;;;;;;5064788;28;20053;-62
2021/08/20 22:27:19;;;;;;;2.20;1.70;;;;;;;;;;5065418;28;20039;-62
2021/08/20 22:29:46;;;;;;;2.60;1.80;;;;;;;;;;5065650;28;20114;-62
2021/08/20 22:32:12;;;;;;;2.05;1.85;;;;;;;;;;5065179;28;20091;-62
2021/08/20 22:34:38;;;;;;;1.92;1.55;;;;;;;;;;5065003;28;20107;-62
2021/08/20 22:37:04;;;;;;;2.13;1.63;;;;;;;;;;5066520;28;20028;-62
2021/08/20 22:39:31;;;;;;;1.80;1.52;;;;;;;;;;5066408;28;20469;-61
2021/08/20 22:41:57;;;;;;;1.40;1.30;;;;;;;;;;5062393;28;20042;-62
2021/08/20 22:44:23;;;;;;;1.30;1.20;;;;;;;;;;5062843;28;20133;-61
2021/08/20 22:46:49;;;;;;;2.15;1.30;;;;;;;;;;5045541;28;20018;-61